sensor_id;sensor_type;location;lat;lon;timestamp;P1;durP1;ratioP1;P2;durP2;ratioP2
70067;SDS011;57425;51.616;6.680;2022-10-18T08:22:41;36.92;;;14.60;;
70067;SDS011;57425;51.616;6.680;2022-10-18T08:25:06;39.33;;;14.27;;
70067;SDS011;57425;51.616;6.680;2022-10-18T08:27:32;40.45;;;14.15;;
70067;SDS011;57425;51.616;6.680;2022-10-18T08:29:58;36.33;;;13.90;;
70067;SDS011;57425;51.616;6.680;2022-10-18T08:32:25;39.63;;;13.65;;
70067;SDS011;57425;51.616;6.680;2022-10-18T08:34:52;43.47;;;14.38;;
70067;SDS011;57425;51.616;6.680;2022-10-18T08:37:18;43.20;;;15.15;;
70067;SDS011;57425;51.616;6.680;2022-10-18T08:39:43;38.47;;;14.07;;
70067;SDS011;57425;51.616;6.680;2022-10-18T08:42:34;38.05;;;14.27;;
70067;SDS011;57425;51.616;6.680;2022-10-18T08:45:10;38.17;;;12.93;;
70067;SDS011;57425;51.616;6.680;2022-10-18T08:47:41;34.95;;;13.48;;
70067;SDS011;57425;51.616;6.680;2022-10-18T08:50:12;38.20;;;14.43;;
70067;SDS011;57425;51.616;6.680;2022-10-18T08:55:16;41.33;;;14.93;;
70067;SDS011;57425;51.616;6.680;2022-10-18T08:58:01;35.55;;;14.52;;
70067;SDS011;57425;51.616;6.680;2022-10-18T09:00:30;39.40;;;14.63;;
70067;SDS011;57425;51.616;6.680;2022-10-18T09:03:10;35.15;;;15.10;;
70067;SDS011;57425;51.616;6.680;2022-10-18T09:09:02;46.97;;;14.95;;
70067;SDS011;57425;51.616;6.680;2022-10-18T09:22:19;47.25;;;16.13;;
70067;SDS011;57425;51.616;6.680;2022-10-18T09:25:14;41.47;;;15.25;;
70067;SDS011;57425;51.616;6.680;2022-10-18T09:30:21;46.35;;;15.43;;
70067;SDS011;57425;51.616;6.680;2022-10-18T09:33:15;43.00;;;15.73;;
70067;SDS011;57425;51.616;6.680;2022-10-18T09:36:00;36.40;;;14.10;;
70067;SDS011;57425;51.616;6.680;2022-10-18T09:38:30;45.00;;;15.40;;
70067;SDS011;57425;51.616;6.680;2022-10-18T09:41:04;43.33;;;13.13;;
70067;SDS011;57425;51.616;6.680;2022-10-18T09:43:40;44.58;;;15.63;;
70067;SDS011;57425;51.616;6.680;2022-10-18T09:46:08;43.28;;;14.07;;
70067;SDS011;57425;51.616;6.680;2022-10-18T09:51:24;42.38;;;14.38;;
70067;SDS011;57425;51.616;6.680;2022-10-18T09:56:43;32.47;;;13.48;;
70067;SDS011;57425;51.616;6.680;2022-10-18T09:59:38;53.30;;;15.75;;
70067;SDS011;57425;51.616;6.680;2022-10-18T10:02:18;31.88;;;12.45;;
70067;SDS011;57425;51.616;6.680;2022-10-18T10:04:46;29.40;;;11.40;;
70067;SDS011;57425;51.616;6.680;2022-10-18T10:07:13;27.60;;;9.73;;
70067;SDS011;57425;51.616;6.680;2022-10-18T10:09:47;30.38;;;11.45;;
70067;SDS011;57425;51.616;6.680;2022-10-18T10:12:24;31.38;;;11.63;;
70067;SDS011;57425;51.616;6.680;2022-10-18T10:14:59;38.47;;;12.43;;
70067;SDS011;57425;51.616;6.680;2022-10-18T10:17:41;39.03;;;12.48;;
70067;SDS011;57425;51.616;6.680;2022-10-18T10:20:17;31.35;;;10.30;;
70067;SDS011;57425;51.616;6.680;2022-10-18T10:22:45;34.20;;;13.20;;
70067;SDS011;57425;51.616;6.680;2022-10-18T10:27:47;39.55;;;10.18;;
70067;SDS011;57425;51.616;6.680;2022-10-18T10:30:26;31.15;;;12.25;;
70067;SDS011;57425;51.616;6.680;2022-10-18T10:32:55;32.95;;;11.30;;
70067;SDS011;57425;51.616;6.680;2022-10-18T10:35:22;20.10;;;8.80;;
70067;SDS011;57425;51.616;6.680;2022-10-18T10:37:56;21.95;;;8.55;;
70067;SDS011;57425;51.616;6.680;2022-10-18T10:40:25;36.17;;;8.95;;
70067;SDS011;57425;51.616;6.680;2022-10-18T10:42:59;20.70;;;8.52;;
70067;SDS011;57425;51.616;6.680;2022-10-18T10:45:35;32.00;;;8.48;;
70067;SDS011;57425;51.616;6.680;2022-10-18T10:48:06;27.90;;;6.97;;
70067;SDS011;57425;51.616;6.680;2022-10-18T10:56:06;22.38;;;7.47;;
70067;SDS011;57425;51.616;6.680;2022-10-18T10:58:41;27.77;;;8.50;;
70067;SDS011;57425;51.616;6.680;2022-10-18T11:01:40;26.88;;;6.50;;
70067;SDS011;57425;51.616;6.680;2022-10-18T11:04:00;23.48;;;7.38;;
70067;SDS011;57425;51.616;6.680;2022-10-18T11:15:33;22.90;;;6.20;;
70067;SDS011;57425;51.616;6.680;2022-10-18T11:20:46;17.10;;;6.53;;
70067;SDS011;57425;51.616;6.680;2022-10-18T11:23:17;22.42;;;7.55;;
70067;SDS011;57425;51.616;6.680;2022-10-18T11:36:26;23.48;;;7.60;;
70067;SDS011;57425;51.616;6.680;2022-10-18T11:38:56;27.52;;;6.82;;
70067;SDS011;57425;51.616;6.680;2022-10-18T11:44:13;16.63;;;5.65;;
70067;SDS011;57425;51.616;6.680;2022-10-18T11:50:33;18.85;;;6.25;;
70067;SDS011;57425;51.616;6.680;2022-10-18T11:58:37;13.40;;;6.05;;
70067;SDS011;57425;51.616;6.680;2022-10-18T12:01:00;13.43;;;5.07;;
70067;SDS011;57425;51.616;6.680;2022-10-18T12:06:20;18.92;;;4.65;;
70067;SDS011;57425;51.616;6.680;2022-10-18T12:08:48;14.68;;;3.60;;
70067;SDS011;57425;51.616;6.680;2022-10-18T12:11:21;9.23;;;3.25;;
70067;SDS011;57425;51.616;6.680;2022-10-18T12:13:54;12.07;;;3.45;;
70067;SDS011;57425;51.616;6.680;2022-10-18T12:16:26;18.33;;;5.35;;
70067;SDS011;57425;51.616;6.680;2022-10-18T12:18:55;15.95;;;4.13;;
70067;SDS011;57425;51.616;6.680;2022-10-18T12:21:28;18.00;;;3.83;;
70067;SDS011;57425;51.616;6.680;2022-10-18T12:23:58;13.60;;;4.07;;
70067;SDS011;57425;51.616;6.680;2022-10-18T12:26:29;8.93;;;3.22;;
70067;SDS011;57425;51.616;6.680;2022-10-18T12:29:02;15.48;;;3.67;;
70067;SDS011;57425;51.616;6.680;2022-10-18T12:40:33;15.57;;;4.00;;
70067;SDS011;57425;51.616;6.680;2022-10-18T12:42:43;22.15;;;3.13;;
70067;SDS011;57425;51.616;6.680;2022-10-18T12:45:34;13.20;;;2.95;;
70067;SDS011;57425;51.616;6.680;2022-10-18T12:48:26;16.77;;;3.13;;
70067;SDS011;57425;51.616;6.680;2022-10-18T12:53:44;17.02;;;2.80;;
70067;SDS011;57425;51.616;6.680;2022-10-18T13:09:39;15.60;;;2.13;;
70067;SDS011;57425;51.616;6.680;2022-10-18T13:20:31;10.65;;;1.83;;
70067;SDS011;57425;51.616;6.680;2022-10-18T13:31:27;14.32;;;2.85;;
70067;SDS011;57425;51.616;6.680;2022-10-18T13:39:20;7.22;;;1.42;;
70067;SDS011;57425;51.616;6.680;2022-10-18T13:44:28;11.15;;;1.35;;
70067;SDS011;57425;51.616;6.680;2022-10-18T13:58:20;15.70;;;2.47;;
70067;SDS011;57425;51.616;6.680;2022-10-18T14:06:27;10.43;;;1.60;;
70067;SDS011;57425;51.616;6.680;2022-10-18T14:09:10;6.47;;;1.10;;
70067;SDS011;57425;51.616;6.680;2022-10-18T14:17:03;6.43;;;1.40;;
70067;SDS011;57425;51.616;6.680;2022-10-18T14:19:43;7.38;;;1.52;;
70067;SDS011;57425;51.616;6.680;2022-10-18T14:24:52;12.40;;;1.40;;
70067;SDS011;57425;51.616;6.680;2022-10-18T14:27:21;7.88;;;1.30;;
70067;SDS011;57425;51.616;6.680;2022-10-18T14:30:13;8.52;;;1.15;;
70067;SDS011;57425;51.616;6.680;2022-10-18T14:32:45;8.07;;;1.10;;
70067;SDS011;57425;51.616;6.680;2022-10-18T14:35:19;8.35;;;1.27;;
70067;SDS011;57425;51.616;6.680;2022-10-18T14:37:48;16.30;;;1.60;;
70067;SDS011;57425;51.616;6.680;2022-10-18T14:40:30;10.48;;;1.33;;
70067;SDS011;57425;51.616;6.680;2022-10-18T14:43:00;11.85;;;1.17;;
70067;SDS011;57425;51.616;6.680;2022-10-18T14:45:28;5.03;;;1.00;;
70067;SDS011;57425;51.616;6.680;2022-10-18T14:47:53;5.13;;;1.00;;
70067;SDS011;57425;51.616;6.680;2022-10-18T14:50:20;5.90;;;0.75;;
70067;SDS011;57425;51.616;6.680;2022-10-18T14:52:47;7.03;;;1.20;;
70067;SDS011;57425;51.616;6.680;2022-10-18T14:55:21;10.50;;;1.27;;
70067;SDS011;57425;51.616;6.680;2022-10-18T14:57:49;7.43;;;1.23;;
70067;SDS011;57425;51.616;6.680;2022-10-18T15:00:28;9.65;;;1.15;;
70067;SDS011;57425;51.616;6.680;2022-10-18T15:02:59;3.58;;;1.40;;
70067;SDS011;57425;51.616;6.680;2022-10-18T15:05:26;4.47;;;0.80;;
70067;SDS011;57425;51.616;6.680;2022-10-18T15:07:51;9.93;;;1.13;;
70067;SDS011;57425;51.616;6.680;2022-10-18T15:10:26;2.83;;;1.05;;
70067;SDS011;57425;51.616;6.680;2022-10-18T15:12:55;7.40;;;1.25;;
70067;SDS011;57425;51.616;6.680;2022-10-18T15:15:30;13.27;;;1.30;;
70067;SDS011;57425;51.616;6.680;2022-10-18T15:17:57;6.72;;;1.05;;
70067;SDS011;57425;51.616;6.680;2022-10-18T15:20:25;3.50;;;1.02;;
70067;SDS011;57425;51.616;6.680;2022-10-18T15:23:19;6.22;;;1.80;;
70067;SDS011;57425;51.616;6.680;2022-10-18T15:25:46;11.68;;;1.35;;
70067;SDS011;57425;51.616;6.680;2022-10-18T15:28:34;9.43;;;1.83;;
70067;SDS011;57425;51.616;6.680;2022-10-18T15:31:03;5.03;;;1.50;;
70067;SDS011;57425;51.616;6.680;2022-10-18T15:33:29;7.63;;;1.20;;
70067;SDS011;57425;51.616;6.680;2022-10-18T15:36:10;7.00;;;1.15;;
70067;SDS011;57425;51.616;6.680;2022-10-18T15:38:51;9.80;;;1.40;;
70067;SDS011;57425;51.616;6.680;2022-10-18T15:41:35;14.57;;;1.10;;
70067;SDS011;57425;51.616;6.680;2022-10-18T15:44:21;5.50;;;0.90;;
70067;SDS011;57425;51.616;6.680;2022-10-18T15:46:53;12.52;;;1.13;;
70067;SDS011;57425;51.616;6.680;2022-10-18T15:51:50;6.32;;;1.98;;
70067;SDS011;57425;51.616;6.680;2022-10-18T15:54:39;6.57;;;0.98;;
70067;SDS011;57425;51.616;6.680;2022-10-18T15:57:06;10.05;;;1.38;;
70067;SDS011;57425;51.616;6.680;2022-10-18T15:59:35;6.95;;;0.82;;
70067;SDS011;57425;51.616;6.680;2022-10-18T16:02:18;3.90;;;1.25;;
70067;SDS011;57425;51.616;6.680;2022-10-18T16:04:44;9.75;;;1.35;;
70067;SDS011;57425;51.616;6.680;2022-10-18T16:07:11;8.45;;;1.02;;
70067;SDS011;57425;51.616;6.680;2022-10-18T16:09:37;13.95;;;1.00;;
70067;SDS011;57425;51.616;6.680;2022-10-18T16:12:03;9.38;;;2.28;;
70067;SDS011;57425;51.616;6.680;2022-10-18T16:14:29;6.32;;;2.00;;
70067;SDS011;57425;51.616;6.680;2022-10-18T16:16:59;11.07;;;1.88;;
70067;SDS011;57425;51.616;6.680;2022-10-18T16:19:27;9.68;;;1.92;;
70067;SDS011;57425;51.616;6.680;2022-10-18T16:21:53;17.20;;;2.08;;
70067;SDS011;57425;51.616;6.680;2022-10-18T16:24:19;8.60;;;1.98;;
70067;SDS011;57425;51.616;6.680;2022-10-18T16:26:46;5.72;;;1.75;;
70067;SDS011;57425;51.616;6.680;2022-10-18T16:29:16;5.07;;;1.08;;
70067;SDS011;57425;51.616;6.680;2022-10-18T16:34:11;4.38;;;1.80;;
70067;SDS011;57425;51.616;6.680;2022-10-18T16:36:39;5.25;;;1.17;;
70067;SDS011;57425;51.616;6.680;2022-10-18T16:39:09;19.00;;;1.48;;
70067;SDS011;57425;51.616;6.680;2022-10-18T16:41:41;8.27;;;1.00;;
70067;SDS011;57425;51.616;6.680;2022-10-18T16:44:07;3.42;;;1.13;;
70067;SDS011;57425;51.616;6.680;2022-10-18T16:46:34;10.63;;;1.35;;
70067;SDS011;57425;51.616;6.680;2022-10-18T16:49:01;7.70;;;1.98;;
70067;SDS011;57425;51.616;6.680;2022-10-18T16:51:27;8.70;;;1.25;;
70067;SDS011;57425;51.616;6.680;2022-10-18T16:53:53;4.07;;;1.20;;
70067;SDS011;57425;51.616;6.680;2022-10-18T16:56:29;19.98;;;1.17;;
70067;SDS011;57425;51.616;6.680;2022-10-18T16:58:56;14.75;;;1.42;;
70067;SDS011;57425;51.616;6.680;2022-10-18T17:01:22;10.00;;;1.50;;
70067;SDS011;57425;51.616;6.680;2022-10-18T17:03:48;4.97;;;1.30;;
70067;SDS011;57425;51.616;6.680;2022-10-18T17:06:18;12.30;;;1.05;;
70067;SDS011;57425;51.616;6.680;2022-10-18T17:08:46;7.13;;;1.20;;
70067;SDS011;57425;51.616;6.680;2022-10-18T17:11:12;6.95;;;1.23;;
70067;SDS011;57425;51.616;6.680;2022-10-18T17:13:40;7.72;;;1.40;;
70067;SDS011;57425;51.616;6.680;2022-10-18T17:16:10;12.45;;;1.95;;
70067;SDS011;57425;51.616;6.680;2022-10-18T17:18:43;10.43;;;1.75;;
70067;SDS011;57425;51.616;6.680;2022-10-18T17:21:08;14.38;;;1.13;;
70067;SDS011;57425;51.616;6.680;2022-10-18T17:23:34;23.35;;;2.08;;
70067;SDS011;57425;51.616;6.680;2022-10-18T17:26:00;11.93;;;1.50;;
70067;SDS011;57425;51.616;6.680;2022-10-18T17:28:25;8.25;;;1.60;;
70067;SDS011;57425;51.616;6.680;2022-10-18T17:30:51;6.13;;;1.27;;
70067;SDS011;57425;51.616;6.680;2022-10-18T17:33:17;5.20;;;0.90;;
70067;SDS011;57425;51.616;6.680;2022-10-18T17:35:42;8.05;;;1.27;;
70067;SDS011;57425;51.616;6.680;2022-10-18T17:38:08;4.75;;;1.40;;
70067;SDS011;57425;51.616;6.680;2022-10-18T17:40:34;5.55;;;1.23;;
70067;SDS011;57425;51.616;6.680;2022-10-18T17:43:04;9.05;;;1.77;;
70067;SDS011;57425;51.616;6.680;2022-10-18T17:45:29;11.43;;;1.25;;
70067;SDS011;57425;51.616;6.680;2022-10-18T17:47:55;6.95;;;1.65;;
70067;SDS011;57425;51.616;6.680;2022-10-18T17:50:21;11.95;;;1.55;;
70067;SDS011;57425;51.616;6.680;2022-10-18T17:52:46;12.15;;;2.30;;
70067;SDS011;57425;51.616;6.680;2022-10-18T17:55:13;11.90;;;1.63;;
70067;SDS011;57425;51.616;6.680;2022-10-18T17:57:39;11.93;;;1.63;;
70067;SDS011;57425;51.616;6.680;2022-10-18T18:00:07;17.55;;;2.05;;
70067;SDS011;57425;51.616;6.680;2022-10-18T18:02:36;24.67;;;3.08;;
70067;SDS011;57425;51.616;6.680;2022-10-18T18:05:02;10.25;;;2.40;;
70067;SDS011;57425;51.616;6.680;2022-10-18T18:07:28;9.93;;;2.97;;
70067;SDS011;57425;51.616;6.680;2022-10-18T18:09:55;14.68;;;2.25;;
70067;SDS011;57425;51.616;6.680;2022-10-18T18:12:20;10.20;;;2.42;;
70067;SDS011;57425;51.616;6.680;2022-10-18T18:14:46;8.55;;;2.55;;
70067;SDS011;57425;51.616;6.680;2022-10-18T18:17:13;19.52;;;2.50;;
70067;SDS011;57425;51.616;6.680;2022-10-18T18:19:38;28.77;;;2.92;;
70067;SDS011;57425;51.616;6.680;2022-10-18T18:22:04;22.58;;;6.55;;
70067;SDS011;57425;51.616;6.680;2022-10-18T18:24:30;29.60;;;8.75;;
70067;SDS011;57425;51.616;6.680;2022-10-18T18:26:56;21.05;;;8.50;;
70067;SDS011;57425;51.616;6.680;2022-10-18T18:29:22;20.52;;;8.75;;
70067;SDS011;57425;51.616;6.680;2022-10-18T18:31:49;16.67;;;7.63;;
70067;SDS011;57425;51.616;6.680;2022-10-18T18:34:15;25.67;;;7.25;;
70067;SDS011;57425;51.616;6.680;2022-10-18T18:36:41;19.05;;;5.90;;
70067;SDS011;57425;51.616;6.680;2022-10-18T18:39:07;15.02;;;5.45;;
70067;SDS011;57425;51.616;6.680;2022-10-18T18:41:43;20.13;;;4.50;;
70067;SDS011;57425;51.616;6.680;2022-10-18T18:44:08;13.27;;;2.60;;
70067;SDS011;57425;51.616;6.680;2022-10-18T18:46:34;7.35;;;2.28;;
70067;SDS011;57425;51.616;6.680;2022-10-18T18:49:04;9.85;;;2.20;;
70067;SDS011;57425;51.616;6.680;2022-10-18T18:51:31;8.70;;;2.72;;
70067;SDS011;57425;51.616;6.680;2022-10-18T18:53:57;10.88;;;2.28;;
70067;SDS011;57425;51.616;6.680;2022-10-18T18:56:24;10.52;;;2.03;;
70067;SDS011;57425;51.616;6.680;2022-10-18T18:58:52;8.63;;;2.53;;
70067;SDS011;57425;51.616;6.680;2022-10-18T19:01:19;24.70;;;9.10;;
70067;SDS011;57425;51.616;6.680;2022-10-18T19:03:47;22.65;;;7.28;;
70067;SDS011;57425;51.616;6.680;2022-10-18T19:06:15;22.13;;;8.60;;
70067;SDS011;57425;51.616;6.680;2022-10-18T19:08:46;26.13;;;9.60;;
70067;SDS011;57425;51.616;6.680;2022-10-18T19:11:13;22.98;;;10.63;;
70067;SDS011;57425;51.616;6.680;2022-10-18T19:13:40;27.13;;;10.70;;
70067;SDS011;57425;51.616;6.680;2022-10-18T19:18:58;21.33;;;9.10;;
70067;SDS011;57425;51.616;6.680;2022-10-18T19:21:26;26.85;;;7.70;;
70067;SDS011;57425;51.616;6.680;2022-10-18T19:23:55;15.88;;;7.43;;
70067;SDS011;57425;51.616;6.680;2022-10-18T19:26:29;9.27;;;5.45;;
70067;SDS011;57425;51.616;6.680;2022-10-18T19:29:00;11.52;;;5.10;;
70067;SDS011;57425;51.616;6.680;2022-10-18T19:31:37;12.02;;;4.80;;
70067;SDS011;57425;51.616;6.680;2022-10-18T19:34:04;23.25;;;6.95;;
70067;SDS011;57425;51.616;6.680;2022-10-18T19:36:31;28.00;;;7.15;;
70067;SDS011;57425;51.616;6.680;2022-10-18T19:38:58;16.55;;;6.35;;
70067;SDS011;57425;51.616;6.680;2022-10-18T19:41:24;20.13;;;6.70;;
70067;SDS011;57425;51.616;6.680;2022-10-18T19:43:52;15.50;;;6.75;;
70067;SDS011;57425;51.616;6.680;2022-10-18T19:46:20;20.65;;;6.60;;
70067;SDS011;57425;51.616;6.680;2022-10-18T19:48:47;15.68;;;5.93;;
70067;SDS011;57425;51.616;6.680;2022-10-18T19:51:13;22.83;;;5.30;;
70067;SDS011;57425;51.616;6.680;2022-10-18T19:53:40;11.80;;;4.95;;
70067;SDS011;57425;51.616;6.680;2022-10-18T19:56:06;11.60;;;4.45;;
70067;SDS011;57425;51.616;6.680;2022-10-18T19:58:32;14.02;;;4.43;;
70067;SDS011;57425;51.616;6.680;2022-10-18T20:00:59;11.45;;;4.13;;
70067;SDS011;57425;51.616;6.680;2022-10-18T20:03:26;9.88;;;3.08;;
70067;SDS011;57425;51.616;6.680;2022-10-18T20:05:56;9.43;;;3.38;;
70067;SDS011;57425;51.616;6.680;2022-10-18T20:08:23;12.60;;;3.25;;
70067;SDS011;57425;51.616;6.680;2022-10-18T20:10:50;6.40;;;3.35;;
70067;SDS011;57425;51.616;6.680;2022-10-18T20:13:17;8.82;;;3.05;;
70067;SDS011;57425;51.616;6.680;2022-10-18T20:15:44;15.05;;;3.05;;
70067;SDS011;57425;51.616;6.680;2022-10-18T20:18:13;14.68;;;3.97;;
70067;SDS011;57425;51.616;6.680;2022-10-18T20:20:40;10.77;;;4.50;;
70067;SDS011;57425;51.616;6.680;2022-10-18T20:23:06;8.80;;;4.50;;
70067;SDS011;57425;51.616;6.680;2022-10-18T20:25:32;11.48;;;4.78;;
70067;SDS011;57425;51.616;6.680;2022-10-18T20:27:57;16.38;;;5.45;;
70067;SDS011;57425;51.616;6.680;2022-10-18T20:30:23;10.45;;;4.72;;
70067;SDS011;57425;51.616;6.680;2022-10-18T20:32:50;30.50;;;5.38;;
70067;SDS011;57425;51.616;6.680;2022-10-18T20:35:16;9.23;;;4.10;;
70067;SDS011;57425;51.616;6.680;2022-10-18T20:37:43;14.20;;;2.65;;
70067;SDS011;57425;51.616;6.680;2022-10-18T20:40:09;3.65;;;1.90;;
70067;SDS011;57425;51.616;6.680;2022-10-18T20:42:35;13.88;;;2.05;;
70067;SDS011;57425;51.616;6.680;2022-10-18T20:45:00;3.28;;;1.58;;
70067;SDS011;57425;51.616;6.680;2022-10-18T20:47:27;5.85;;;1.67;;
70067;SDS011;57425;51.616;6.680;2022-10-18T20:49:53;5.78;;;1.30;;
70067;SDS011;57425;51.616;6.680;2022-10-18T20:52:19;9.38;;;1.40;;
70067;SDS011;57425;51.616;6.680;2022-10-18T20:54:44;11.32;;;1.65;;
70067;SDS011;57425;51.616;6.680;2022-10-18T20:57:10;12.85;;;1.73;;
70067;SDS011;57425;51.616;6.680;2022-10-18T20:59:35;8.30;;;1.38;;
70067;SDS011;57425;51.616;6.680;2022-10-18T21:02:01;10.25;;;2.22;;
70067;SDS011;57425;51.616;6.680;2022-10-18T21:04:27;19.05;;;1.67;;
70067;SDS011;57425;51.616;6.680;2022-10-18T21:06:53;3.70;;;1.38;;
70067;SDS011;57425;51.616;6.680;2022-10-18T21:09:19;9.55;;;1.50;;
70067;SDS011;57425;51.616;6.680;2022-10-18T21:11:49;9.20;;;2.53;;
70067;SDS011;57425;51.616;6.680;2022-10-18T21:14:19;5.38;;;1.13;;
70067;SDS011;57425;51.616;6.680;2022-10-18T21:16:46;2.75;;;1.02;;
70067;SDS011;57425;51.616;6.680;2022-10-18T21:19:17;3.95;;;1.08;;
70067;SDS011;57425;51.616;6.680;2022-10-18T21:21:49;5.45;;;1.58;;
70067;SDS011;57425;51.616;6.680;2022-10-18T21:24:17;3.65;;;1.30;;
70067;SDS011;57425;51.616;6.680;2022-10-18T21:26:43;7.25;;;1.73;;
70067;SDS011;57425;51.616;6.680;2022-10-18T21:29:10;5.90;;;1.80;;
70067;SDS011;57425;51.616;6.680;2022-10-18T21:31:37;8.18;;;1.88;;
70067;SDS011;57425;51.616;6.680;2022-10-18T21:34:06;5.63;;;2.08;;
70067;SDS011;57425;51.616;6.680;2022-10-18T21:36:36;5.25;;;2.00;;
70067;SDS011;57425;51.616;6.680;2022-10-18T21:39:03;10.23;;;2.65;;
70067;SDS011;57425;51.616;6.680;2022-10-18T21:41:32;4.10;;;1.80;;
70067;SDS011;57425;51.616;6.680;2022-10-18T21:43:58;5.20;;;2.20;;
70067;SDS011;57425;51.616;6.680;2022-10-18T21:46:24;7.00;;;1.67;;
70067;SDS011;57425;51.616;6.680;2022-10-18T21:48:53;5.35;;;1.80;;
70067;SDS011;57425;51.616;6.680;2022-10-18T21:51:21;7.03;;;2.10;;
70067;SDS011;57425;51.616;6.680;2022-10-18T21:53:49;11.40;;;2.25;;
70067;SDS011;57425;51.616;6.680;2022-10-18T21:56:21;15.00;;;1.67;;
70067;SDS011;57425;51.616;6.680;2022-10-18T21:58:48;9.52;;;1.85;;
70067;SDS011;57425;51.616;6.680;2022-10-18T22:01:15;4.10;;;1.60;;
70067;SDS011;57425;51.616;6.680;2022-10-18T22:03:43;6.25;;;2.65;;
70067;SDS011;57425;51.616;6.680;2022-10-18T22:06:10;4.07;;;1.40;;
70067;SDS011;57425;51.616;6.680;2022-10-18T22:08:38;4.30;;;1.52;;
70067;SDS011;57425;51.616;6.680;2022-10-18T22:11:04;8.73;;;1.55;;
70067;SDS011;57425;51.616;6.680;2022-10-18T22:13:31;4.93;;;1.92;;
70067;SDS011;57425;51.616;6.680;2022-10-18T22:15:59;6.75;;;2.13;;
70067;SDS011;57425;51.616;6.680;2022-10-18T22:18:26;7.57;;;2.17;;
70067;SDS011;57425;51.616;6.680;2022-10-18T22:20:53;4.72;;;2.63;;
70067;SDS011;57425;51.616;6.680;2022-10-18T22:23:22;3.97;;;1.75;;
70067;SDS011;57425;51.616;6.680;2022-10-18T22:25:48;9.35;;;3.08;;
70067;SDS011;57425;51.616;6.680;2022-10-18T22:28:13;14.32;;;2.88;;
70067;SDS011;57425;51.616;6.680;2022-10-18T22:30:39;4.10;;;1.58;;
70067;SDS011;57425;51.616;6.680;2022-10-18T22:33:05;5.72;;;2.58;;
70067;SDS011;57425;51.616;6.680;2022-10-18T22:35:31;7.10;;;2.30;;
70067;SDS011;57425;51.616;6.680;2022-10-18T22:37:57;12.43;;;1.80;;
70067;SDS011;57425;51.616;6.680;2022-10-18T22:40:23;9.02;;;2.30;;
70067;SDS011;57425;51.616;6.680;2022-10-18T22:42:50;3.63;;;2.22;;
70067;SDS011;57425;51.616;6.680;2022-10-18T22:45:16;7.32;;;1.80;;
70067;SDS011;57425;51.616;6.680;2022-10-18T22:47:41;10.60;;;2.78;;
70067;SDS011;57425;51.616;6.680;2022-10-18T22:50:07;5.78;;;2.05;;
70067;SDS011;57425;51.616;6.680;2022-10-18T22:52:34;9.43;;;2.10;;
70067;SDS011;57425;51.616;6.680;2022-10-18T22:54:59;8.88;;;1.85;;
70067;SDS011;57425;51.616;6.680;2022-10-18T22:57:25;5.05;;;1.38;;
70067;SDS011;57425;51.616;6.680;2022-10-18T22:59:50;6.20;;;1.95;;
70067;SDS011;57425;51.616;6.680;2022-10-18T23:02:16;6.35;;;1.40;;
70067;SDS011;57425;51.616;6.680;2022-10-18T23:04:42;3.10;;;1.30;;
70067;SDS011;57425;51.616;6.680;2022-10-18T23:07:07;2.10;;;1.33;;
70067;SDS011;57425;51.616;6.680;2022-10-18T23:09:33;13.23;;;2.05;;
70067;SDS011;57425;51.616;6.680;2022-10-18T23:11:59;4.82;;;2.67;;
70067;SDS011;57425;51.616;6.680;2022-10-18T23:14:24;9.35;;;1.70;;
70067;SDS011;57425;51.616;6.680;2022-10-18T23:16:50;9.90;;;1.88;;
70067;SDS011;57425;51.616;6.680;2022-10-18T23:19:16;7.20;;;1.95;;
70067;SDS011;57425;51.616;6.680;2022-10-18T23:21:41;7.22;;;1.20;;
70067;SDS011;57425;51.616;6.680;2022-10-18T23:24:07;4.72;;;1.02;;
70067;SDS011;57425;51.616;6.680;2022-10-18T23:26:33;11.98;;;1.42;;
70067;SDS011;57425;51.616;6.680;2022-10-18T23:28:58;3.58;;;1.55;;
70067;SDS011;57425;51.616;6.680;2022-10-18T23:31:28;10.27;;;1.65;;
70067;SDS011;57425;51.616;6.680;2022-10-18T23:33:56;2.42;;;0.93;;
70067;SDS011;57425;51.616;6.680;2022-10-18T23:36:24;3.17;;;1.00;;
70067;SDS011;57425;51.616;6.680;2022-10-18T23:38:51;2.22;;;1.50;;
70067;SDS011;57425;51.616;6.680;2022-10-18T23:41:18;1.65;;;1.05;;
70067;SDS011;57425;51.616;6.680;2022-10-18T23:43:44;3.60;;;0.77;;
70067;SDS011;57425;51.616;6.680;2022-10-18T23:46:10;7.72;;;1.60;;
70067;SDS011;57425;51.616;6.680;2022-10-18T23:48:37;2.72;;;1.13;;
70067;SDS011;57425;51.616;6.680;2022-10-18T23:51:03;0.95;;;0.88;;
70067;SDS011;57425;51.616;6.680;2022-10-18T23:53:29;10.73;;;1.33;;
70067;SDS011;57425;51.616;6.680;2022-10-18T23:55:59;6.68;;;0.70;;
70067;SDS011;57425;51.616;6.680;2022-10-18T23:58:26;1.30;;;0.80;;
